sensor_id;sensor_type;location;lat;lon;timestamp;pressure;altitude;pressure_sealevel;temperature;humidity
76998;BME280;65930;48.874;10.734;2023-01-04T00:01:38;97255.25;;;3.28;86.61
76998;BME280;65930;48.874;10.734;2023-01-04T00:04:06;97247.38;;;3.35;86.93
76998;BME280;65930;48.874;10.734;2023-01-04T00:06:34;97255.44;;;3.23;87.40
76998;BME280;65930;48.874;10.734;2023-01-04T00:09:02;97251.09;;;3.14;87.59
76998;BME280;65930;48.874;10.734;2023-01-04T00:12:02;97235.63;;;3.18;87.65
76998;BME280;65930;48.874;10.734;2023-01-04T00:14:31;97248.03;;;3.15;87.72
76998;BME280;65930;48.874;10.734;2023-01-04T00:17:00;97248.97;;;3.28;87.88
76998;BME280;65930;48.874;10.734;2023-01-04T00:19:28;97245.28;;;3.24;87.48
76998;BME280;65930;48.874;10.734;2023-01-04T00:21:56;97246.72;;;3.38;87.68
76998;BME280;65930;48.874;10.734;2023-01-04T00:24:24;97237.66;;;3.46;87.29
76998;BME280;65930;48.874;10.734;2023-01-04T00:26:52;97242.34;;;3.46;86.23
76998;BME280;65930;48.874;10.734;2023-01-04T00:29:20;97235.75;;;3.38;86.91
76998;BME280;65930;48.874;10.734;2023-01-04T00:31:49;97246.25;;;3.28;87.69
76998;BME280;65930;48.874;10.734;2023-01-04T00:34:18;97249.00;;;3.19;88.11
76998;BME280;65930;48.874;10.734;2023-01-04T00:36:46;97250.63;;;3.20;87.75
76998;BME280;65930;48.874;10.734;2023-01-04T00:39:18;97244.00;;;3.30;87.48
76998;BME280;65930;48.874;10.734;2023-01-04T00:41:48;97246.41;;;3.40;86.67
76998;BME280;65930;48.874;10.734;2023-01-04T00:44:27;97246.22;;;3.36;86.71
76998;BME280;65930;48.874;10.734;2023-01-04T00:46:57;97250.28;;;3.30;86.53
76998;BME280;65930;48.874;10.734;2023-01-04T00:49:26;97249.59;;;3.42;86.26
76998;BME280;65930;48.874;10.734;2023-01-04T00:51:54;97239.16;;;3.27;87.31
76998;BME280;65930;48.874;10.734;2023-01-04T00:54:23;97246.94;;;3.07;87.68
76998;BME280;65930;48.874;10.734;2023-01-04T00:56:52;97244.19;;;3.16;87.77
76998;BME280;65930;48.874;10.734;2023-01-04T00:59:20;97238.84;;;3.20;87.33
76998;BME280;65930;48.874;10.734;2023-01-04T01:01:49;97243.66;;;3.23;86.96
76998;BME280;65930;48.874;10.734;2023-01-04T01:04:21;97226.44;;;3.14;87.81
76998;BME280;65930;48.874;10.734;2023-01-04T01:06:51;97217.09;;;3.23;87.23
76998;BME280;65930;48.874;10.734;2023-01-04T01:09:20;97228.84;;;3.24;87.99
76998;BME280;65930;48.874;10.734;2023-01-04T01:11:49;97210.78;;;3.31;87.62
76998;BME280;65930;48.874;10.734;2023-01-04T01:14:20;97216.13;;;3.19;87.14
76998;BME280;65930;48.874;10.734;2023-01-04T01:16:48;97220.94;;;3.22;87.46
76998;BME280;65930;48.874;10.734;2023-01-04T01:19:27;97218.88;;;3.19;87.14
76998;BME280;65930;48.874;10.734;2023-01-04T01:21:56;97228.03;;;3.23;87.51
76998;BME280;65930;48.874;10.734;2023-01-04T01:24:26;97223.69;;;3.31;87.60
76998;BME280;65930;48.874;10.734;2023-01-04T01:26:55;97220.00;;;3.35;87.53
76998;BME280;65930;48.874;10.734;2023-01-04T01:29:23;97222.38;;;3.37;87.78
76998;BME280;65930;48.874;10.734;2023-01-04T01:31:52;97236.09;;;3.28;87.35
76998;BME280;65930;48.874;10.734;2023-01-04T01:34:20;97222.13;;;3.13;88.49
76998;BME280;65930;48.874;10.734;2023-01-04T01:36:50;97229.69;;;2.90;89.72
76998;BME280;65930;48.874;10.734;2023-01-04T01:39:18;97228.06;;;3.06;89.49
76998;BME280;65930;48.874;10.734;2023-01-04T01:41:46;97216.63;;;3.04;89.38
76998;BME280;65930;48.874;10.734;2023-01-04T01:44:53;97221.66;;;3.02;90.05
76998;BME280;65930;48.874;10.734;2023-01-04T01:47:29;97211.31;;;3.16;88.83
76998;BME280;65930;48.874;10.734;2023-01-04T01:50:02;97218.41;;;3.17;89.14
76998;BME280;65930;48.874;10.734;2023-01-04T01:52:37;97214.53;;;3.09;89.59
76998;BME280;65930;48.874;10.734;2023-01-04T01:55:10;97212.63;;;3.10;89.30
76998;BME280;65930;48.874;10.734;2023-01-04T01:57:40;97214.06;;;3.07;89.85
76998;BME280;65930;48.874;10.734;2023-01-04T02:00:11;97214.53;;;3.18;89.86
76998;BME280;65930;48.874;10.734;2023-01-04T02:02:46;97220.16;;;3.30;89.67
76998;BME280;65930;48.874;10.734;2023-01-04T02:05:18;97226.97;;;3.07;90.32
76998;BME280;65930;48.874;10.734;2023-01-04T02:07:49;97221.63;;;3.19;90.98
76998;BME280;65930;48.874;10.734;2023-01-04T02:10:18;97219.22;;;3.26;89.99
76998;BME280;65930;48.874;10.734;2023-01-04T02:12:47;97212.94;;;3.17;90.15
76998;BME280;65930;48.874;10.734;2023-01-04T02:15:18;97214.34;;;3.23;90.29
76998;BME280;65930;48.874;10.734;2023-01-04T02:17:55;97213.22;;;3.24;90.85
76998;BME280;65930;48.874;10.734;2023-01-04T02:20:44;97218.38;;;3.34;90.55
76998;BME280;65930;48.874;10.734;2023-01-04T02:27:09;97205.78;;;3.42;90.29
76998;BME280;65930;48.874;10.734;2023-01-04T02:30:14;97217.41;;;3.30;91.04
76998;BME280;65930;48.874;10.734;2023-01-04T02:33:12;97211.28;;;3.33;91.18
76998;BME280;65930;48.874;10.734;2023-01-04T02:35:53;97201.00;;;3.22;91.20
76998;BME280;65930;48.874;10.734;2023-01-04T02:38:33;97197.09;;;3.31;91.69
76998;BME280;65930;48.874;10.734;2023-01-04T02:41:17;97191.00;;;3.34;91.14
76998;BME280;65930;48.874;10.734;2023-01-04T02:43:55;97195.00;;;3.37;91.48
76998;BME280;65930;48.874;10.734;2023-01-04T02:46:48;97186.47;;;3.38;91.09
76998;BME280;65930;48.874;10.734;2023-01-04T02:49:19;97186.75;;;3.45;91.45
76998;BME280;65930;48.874;10.734;2023-01-04T02:52:06;97171.97;;;3.38;90.33
76998;BME280;65930;48.874;10.734;2023-01-04T02:54:36;97173.91;;;3.37;90.19
76998;BME280;65930;48.874;10.734;2023-01-04T02:57:19;97178.38;;;3.42;90.80
76998;BME280;65930;48.874;10.734;2023-01-04T03:00:19;97176.00;;;3.40;90.23
76998;BME280;65930;48.874;10.734;2023-01-04T03:03:06;97167.56;;;3.45;90.54
76998;BME280;65930;48.874;10.734;2023-01-04T03:06:06;97173.91;;;3.37;90.36
76998;BME280;65930;48.874;10.734;2023-01-04T03:08:53;97176.31;;;3.39;90.19
76998;BME280;65930;48.874;10.734;2023-01-04T03:11:31;97170.31;;;3.45;90.09
76998;BME280;65930;48.874;10.734;2023-01-04T03:14:20;97177.53;;;3.59;89.83
76998;BME280;65930;48.874;10.734;2023-01-04T03:17:02;97164.47;;;3.55;89.35
76998;BME280;65930;48.874;10.734;2023-01-04T03:19:35;97156.44;;;3.50;90.31
76998;BME280;65930;48.874;10.734;2023-01-04T03:22:33;97155.22;;;3.39;90.11
76998;BME280;65930;48.874;10.734;2023-01-04T03:25:25;97154.69;;;3.46;89.97
76998;BME280;65930;48.874;10.734;2023-01-04T03:28:15;97143.28;;;3.44;90.16
76998;BME280;65930;48.874;10.734;2023-01-04T03:31:10;97147.91;;;3.52;89.98
76998;BME280;65930;48.874;10.734;2023-01-04T03:33:57;97144.94;;;3.66;89.50
76998;BME280;65930;48.874;10.734;2023-01-04T03:36:58;97144.19;;;3.57;90.15
76998;BME280;65930;48.874;10.734;2023-01-04T03:39:42;97146.47;;;3.54;89.46
76998;BME280;65930;48.874;10.734;2023-01-04T03:42:36;97137.75;;;3.52;89.96
76998;BME280;65930;48.874;10.734;2023-01-04T03:45:32;97132.94;;;3.49;90.32
76998;BME280;65930;48.874;10.734;2023-01-04T03:48:30;97138.41;;;3.49;90.53
76998;BME280;65930;48.874;10.734;2023-01-04T03:51:09;97127.47;;;3.49;90.04
76998;BME280;65930;48.874;10.734;2023-01-04T03:53:49;97126.28;;;3.59;89.74
76998;BME280;65930;48.874;10.734;2023-01-04T03:56:22;97124.69;;;3.58;89.84
76998;BME280;65930;48.874;10.734;2023-01-04T03:58:52;97118.91;;;3.51;90.31
76998;BME280;65930;48.874;10.734;2023-01-04T04:01:24;97112.91;;;3.58;89.83
76998;BME280;65930;48.874;10.734;2023-01-04T04:03:54;97112.88;;;3.66;89.48
76998;BME280;65930;48.874;10.734;2023-01-04T04:06:40;97099.47;;;3.73;89.48
76998;BME280;65930;48.874;10.734;2023-01-04T04:09:26;97085.16;;;3.68;89.47
76998;BME280;65930;48.874;10.734;2023-01-04T04:11:56;97086.72;;;3.69;88.90
76998;BME280;65930;48.874;10.734;2023-01-04T04:14:25;97104.50;;;3.63;89.49
76998;BME280;65930;48.874;10.734;2023-01-04T04:16:53;97100.47;;;3.60;89.87
76998;BME280;65930;48.874;10.734;2023-01-04T04:19:22;97094.50;;;3.67;89.05
76998;BME280;65930;48.874;10.734;2023-01-04T04:21:50;97096.28;;;3.63;89.08
76998;BME280;65930;48.874;10.734;2023-01-04T04:24:22;97088.06;;;3.63;89.07
76998;BME280;65930;48.874;10.734;2023-01-04T04:26:51;97082.72;;;3.66;89.46
76998;BME280;65930;48.874;10.734;2023-01-04T04:29:22;97084.00;;;3.69;89.07
76998;BME280;65930;48.874;10.734;2023-01-04T04:31:51;97090.91;;;3.75;88.72
76998;BME280;65930;48.874;10.734;2023-01-04T04:34:19;97090.28;;;3.69;88.51
76998;BME280;65930;48.874;10.734;2023-01-04T04:36:47;97084.47;;;3.71;88.93
76998;BME280;65930;48.874;10.734;2023-01-04T04:39:16;97082.22;;;3.73;88.11
76998;BME280;65930;48.874;10.734;2023-01-04T04:41:45;97083.06;;;3.65;88.83
76998;BME280;65930;48.874;10.734;2023-01-04T04:44:14;97085.41;;;3.75;88.23
76998;BME280;65930;48.874;10.734;2023-01-04T04:46:46;97088.03;;;3.71;88.00
76998;BME280;65930;48.874;10.734;2023-01-04T04:49:15;97092.50;;;3.76;87.69
76998;BME280;65930;48.874;10.734;2023-01-04T04:51:44;97098.19;;;3.71;88.53
76998;BME280;65930;48.874;10.734;2023-01-04T04:54:16;97088.16;;;3.75;87.31
76998;BME280;65930;48.874;10.734;2023-01-04T04:56:45;97095.44;;;3.71;87.66
76998;BME280;65930;48.874;10.734;2023-01-04T04:59:14;97092.31;;;3.81;87.74
76998;BME280;65930;48.874;10.734;2023-01-04T05:01:43;97089.84;;;3.88;86.90
76998;BME280;65930;48.874;10.734;2023-01-04T05:04:12;97087.06;;;3.96;86.69
76998;BME280;65930;48.874;10.734;2023-01-04T05:06:43;97094.00;;;3.94;86.27
76998;BME280;65930;48.874;10.734;2023-01-04T05:09:11;97081.97;;;3.86;86.18
76998;BME280;65930;48.874;10.734;2023-01-04T05:11:40;97075.50;;;3.91;86.07
76998;BME280;65930;48.874;10.734;2023-01-04T05:14:37;97079.03;;;3.91;85.52
76998;BME280;65930;48.874;10.734;2023-01-04T05:17:07;97076.56;;;3.78;85.66
76998;BME280;65930;48.874;10.734;2023-01-04T05:19:35;97077.69;;;3.77;86.21
76998;BME280;65930;48.874;10.734;2023-01-04T05:22:03;97073.81;;;3.78;86.05
76998;BME280;65930;48.874;10.734;2023-01-04T05:24:31;97082.97;;;3.82;85.38
76998;BME280;65930;48.874;10.734;2023-01-04T05:26:59;97065.63;;;3.69;85.58
76998;BME280;65930;48.874;10.734;2023-01-04T05:29:27;97060.44;;;3.76;85.58
76998;BME280;65930;48.874;10.734;2023-01-04T05:32:14;97063.16;;;3.76;84.74
76998;BME280;65930;48.874;10.734;2023-01-04T05:34:43;97062.84;;;3.78;84.85
76998;BME280;65930;48.874;10.734;2023-01-04T05:37:10;97068.22;;;3.66;85.86
76998;BME280;65930;48.874;10.734;2023-01-04T05:39:39;97070.16;;;3.65;85.31
76998;BME280;65930;48.874;10.734;2023-01-04T05:42:07;97057.44;;;3.61;86.30
76998;BME280;65930;48.874;10.734;2023-01-04T05:44:55;97054.66;;;3.69;85.32
76998;BME280;65930;48.874;10.734;2023-01-04T05:47:26;97062.75;;;3.66;85.43
76998;BME280;65930;48.874;10.734;2023-01-04T05:49:55;97051.16;;;3.60;85.46
76998;BME280;65930;48.874;10.734;2023-01-04T05:52:23;97048.09;;;3.62;85.66
76998;BME280;65930;48.874;10.734;2023-01-04T05:54:51;97055.38;;;3.58;85.87
76998;BME280;65930;48.874;10.734;2023-01-04T05:57:19;97062.28;;;3.64;85.79
76998;BME280;65930;48.874;10.734;2023-01-04T05:59:47;97065.84;;;3.55;86.82
76998;BME280;65930;48.874;10.734;2023-01-04T06:02:17;97052.78;;;3.61;86.74
76998;BME280;65930;48.874;10.734;2023-01-04T06:04:47;97054.59;;;3.57;86.61
76998;BME280;65930;48.874;10.734;2023-01-04T06:07:24;97065.47;;;3.66;85.95
76998;BME280;65930;48.874;10.734;2023-01-04T06:09:52;97056.19;;;3.58;86.65
76998;BME280;65930;48.874;10.734;2023-01-04T06:12:20;97061.81;;;3.62;86.27
76998;BME280;65930;48.874;10.734;2023-01-04T06:14:48;97057.63;;;3.55;87.31
76998;BME280;65930;48.874;10.734;2023-01-04T06:17:17;97055.84;;;3.60;87.20
76998;BME280;65930;48.874;10.734;2023-01-04T06:19:46;97059.56;;;3.64;87.44
76998;BME280;65930;48.874;10.734;2023-01-04T06:22:14;97053.31;;;3.54;87.76
76998;BME280;65930;48.874;10.734;2023-01-04T06:24:42;97043.25;;;3.67;88.06
76998;BME280;65930;48.874;10.734;2023-01-04T06:27:10;97043.56;;;3.66;87.21
76998;BME280;65930;48.874;10.734;2023-01-04T06:29:38;97045.63;;;3.69;87.61
76998;BME280;65930;48.874;10.734;2023-01-04T06:32:06;97047.59;;;3.68;87.85
76998;BME280;65930;48.874;10.734;2023-01-04T06:34:34;97052.28;;;3.68;87.84
76998;BME280;65930;48.874;10.734;2023-01-04T06:37:04;97035.81;;;3.68;87.51
76998;BME280;65930;48.874;10.734;2023-01-04T06:39:33;97049.78;;;3.75;87.43
76998;BME280;65930;48.874;10.734;2023-01-04T06:42:00;97040.75;;;3.74;87.45
76998;BME280;65930;48.874;10.734;2023-01-04T06:44:32;97047.25;;;3.70;87.34
76998;BME280;65930;48.874;10.734;2023-01-04T06:47:00;97037.41;;;3.69;87.62
76998;BME280;65930;48.874;10.734;2023-01-04T06:49:29;97030.59;;;3.75;87.79
76998;BME280;65930;48.874;10.734;2023-01-04T06:51:57;97022.75;;;3.73;87.06
76998;BME280;65930;48.874;10.734;2023-01-04T06:54:26;97030.91;;;3.82;87.04
76998;BME280;65930;48.874;10.734;2023-01-04T06:56:55;97021.38;;;3.79;87.37
76998;BME280;65930;48.874;10.734;2023-01-04T06:59:23;97027.00;;;3.83;86.86
76998;BME280;65930;48.874;10.734;2023-01-04T07:01:51;97036.69;;;3.80;86.73
76998;BME280;65930;48.874;10.734;2023-01-04T07:04:21;97024.34;;;3.95;86.54
76998;BME280;65930;48.874;10.734;2023-01-04T07:06:50;97027.75;;;3.92;86.94
76998;BME280;65930;48.874;10.734;2023-01-04T07:09:18;97029.03;;;3.94;86.60
76998;BME280;65930;48.874;10.734;2023-01-04T07:11:48;97023.22;;;3.96;86.71
76998;BME280;65930;48.874;10.734;2023-01-04T07:14:16;97013.63;;;4.02;86.22
76998;BME280;65930;48.874;10.734;2023-01-04T07:16:44;97009.88;;;4.07;86.48
76998;BME280;65930;48.874;10.734;2023-01-04T07:19:12;97007.75;;;4.12;86.36
76998;BME280;65930;48.874;10.734;2023-01-04T07:21:40;97004.13;;;4.20;85.57
76998;BME280;65930;48.874;10.734;2023-01-04T07:24:08;97013.44;;;4.28;85.80
76998;BME280;65930;48.874;10.734;2023-01-04T07:26:36;97006.81;;;4.29;85.47
76998;BME280;65930;48.874;10.734;2023-01-04T07:29:05;97004.91;;;4.41;85.28
76998;BME280;65930;48.874;10.734;2023-01-04T07:31:45;97008.38;;;4.51;84.80
76998;BME280;65930;48.874;10.734;2023-01-04T07:34:14;96988.94;;;4.56;84.44
76998;BME280;65930;48.874;10.734;2023-01-04T07:36:42;97004.28;;;4.57;84.74
76998;BME280;65930;48.874;10.734;2023-01-04T07:39:10;96991.94;;;4.63;84.80
76998;BME280;65930;48.874;10.734;2023-01-04T07:41:39;96990.09;;;4.67;84.88
76998;BME280;65930;48.874;10.734;2023-01-04T07:44:12;96994.25;;;4.73;84.67
76998;BME280;65930;48.874;10.734;2023-01-04T07:46:40;96995.97;;;4.77;84.18
76998;BME280;65930;48.874;10.734;2023-01-04T07:49:10;97002.38;;;4.81;84.28
76998;BME280;65930;48.874;10.734;2023-01-04T07:51:44;97000.00;;;4.92;83.60
76998;BME280;65930;48.874;10.734;2023-01-04T07:54:13;97000.22;;;4.87;83.87
76998;BME280;65930;48.874;10.734;2023-01-04T07:56:42;96994.50;;;5.04;83.60
76998;BME280;65930;48.874;10.734;2023-01-04T07:59:13;96995.69;;;5.03;83.06
76998;BME280;65930;48.874;10.734;2023-01-04T08:01:41;96995.56;;;5.12;82.92
76998;BME280;65930;48.874;10.734;2023-01-04T08:04:11;96995.09;;;5.10;82.73
76998;BME280;65930;48.874;10.734;2023-01-04T08:06:43;96987.22;;;5.08;83.35
76998;BME280;65930;48.874;10.734;2023-01-04T08:09:12;96996.22;;;5.09;83.63
76998;BME280;65930;48.874;10.734;2023-01-04T08:11:40;96992.81;;;5.12;82.73
76998;BME280;65930;48.874;10.734;2023-01-04T08:14:09;96985.38;;;5.12;82.77
76998;BME280;65930;48.874;10.734;2023-01-04T08:16:41;96982.97;;;5.23;82.51
76998;BME280;65930;48.874;10.734;2023-01-04T08:19:14;96988.25;;;5.16;83.02
76998;BME280;65930;48.874;10.734;2023-01-04T08:21:43;96997.50;;;5.23;82.12
76998;BME280;65930;48.874;10.734;2023-01-04T08:24:13;96993.63;;;5.24;82.24
76998;BME280;65930;48.874;10.734;2023-01-04T08:26:42;96989.28;;;5.23;82.35
76998;BME280;65930;48.874;10.734;2023-01-04T08:29:12;97000.72;;;5.25;82.29
76998;BME280;65930;48.874;10.734;2023-01-04T08:31:42;96996.16;;;5.29;82.68
76998;BME280;65930;48.874;10.734;2023-01-04T08:34:10;97000.72;;;5.25;82.64
76998;BME280;65930;48.874;10.734;2023-01-04T08:36:46;96995.34;;;5.29;82.75
76998;BME280;65930;48.874;10.734;2023-01-04T08:39:15;96989.03;;;5.28;82.05
76998;BME280;65930;48.874;10.734;2023-01-04T08:41:43;96992.25;;;5.30;82.08
76998;BME280;65930;48.874;10.734;2023-01-04T08:44:30;96985.16;;;5.29;82.02
76998;BME280;65930;48.874;10.734;2023-01-04T08:47:02;96974.16;;;5.29;81.54
76998;BME280;65930;48.874;10.734;2023-01-04T08:49:30;96975.31;;;5.28;82.41
76998;BME280;65930;48.874;10.734;2023-01-04T08:52:00;96970.72;;;5.32;81.54
76998;BME280;65930;48.874;10.734;2023-01-04T08:54:28;96971.41;;;5.42;81.68
76998;BME280;65930;48.874;10.734;2023-01-04T08:56:56;96967.50;;;5.43;81.04
76998;BME280;65930;48.874;10.734;2023-01-04T08:59:25;96959.75;;;5.45;80.58
76998;BME280;65930;48.874;10.734;2023-01-04T09:01:53;96966.59;;;5.51;80.31
76998;BME280;65930;48.874;10.734;2023-01-04T09:04:32;96960.84;;;5.56;80.28
76998;BME280;65930;48.874;10.734;2023-01-04T09:07:00;96956.97;;;5.57;80.45
76998;BME280;65930;48.874;10.734;2023-01-04T09:09:38;96958.66;;;5.61;79.95
76998;BME280;65930;48.874;10.734;2023-01-04T09:12:07;96955.13;;;5.61;80.48
76998;BME280;65930;48.874;10.734;2023-01-04T09:14:34;96956.72;;;5.62;80.55
76998;BME280;65930;48.874;10.734;2023-01-04T09:17:03;96949.28;;;5.62;80.16
76998;BME280;65930;48.874;10.734;2023-01-04T09:19:33;96949.63;;;5.61;80.29
76998;BME280;65930;48.874;10.734;2023-01-04T09:22:01;96957.28;;;5.67;79.73
76998;BME280;65930;48.874;10.734;2023-01-04T09:24:31;96941.81;;;5.75;79.62
76998;BME280;65930;48.874;10.734;2023-01-04T09:26:59;96947.31;;;5.75;79.76
76998;BME280;65930;48.874;10.734;2023-01-04T09:29:27;96940.41;;;5.81;79.56
76998;BME280;65930;48.874;10.734;2023-01-04T09:31:55;96938.13;;;5.83;79.31
76998;BME280;65930;48.874;10.734;2023-01-04T09:34:23;96944.31;;;5.80;78.99
76998;BME280;65930;48.874;10.734;2023-01-04T09:36:53;96932.06;;;5.90;78.93
76998;BME280;65930;48.874;10.734;2023-01-04T09:39:21;96935.59;;;5.90;78.74
76998;BME280;65930;48.874;10.734;2023-01-04T09:41:55;96926.44;;;5.86;79.47
76998;BME280;65930;48.874;10.734;2023-01-04T09:44:34;96916.69;;;5.89;78.86
76998;BME280;65930;48.874;10.734;2023-01-04T09:47:33;96908.31;;;5.85;80.05
76998;BME280;65930;48.874;10.734;2023-01-04T09:50:11;96910.88;;;5.90;79.61
76998;BME280;65930;48.874;10.734;2023-01-04T09:52:50;96913.16;;;5.88;79.62
76998;BME280;65930;48.874;10.734;2023-01-04T09:55:26;96915.88;;;6.00;78.84
76998;BME280;65930;48.874;10.734;2023-01-04T09:58:24;96922.50;;;5.99;79.15
76998;BME280;65930;48.874;10.734;2023-01-04T10:00:59;96919.06;;;6.02;79.25
76998;BME280;65930;48.874;10.734;2023-01-04T10:03:31;96909.66;;;6.03;79.16
76998;BME280;65930;48.874;10.734;2023-01-04T10:06:01;96927.78;;;6.04;78.50
76998;BME280;65930;48.874;10.734;2023-01-04T10:08:31;96919.28;;;6.09;78.33
76998;BME280;65930;48.874;10.734;2023-01-04T10:11:10;96905.34;;;6.18;78.91
76998;BME280;65930;48.874;10.734;2023-01-04T10:14:27;96913.16;;;6.16;79.26
76998;BME280;65930;48.874;10.734;2023-01-04T10:17:10;96910.06;;;6.17;80.07
76998;BME280;65930;48.874;10.734;2023-01-04T10:20:21;96914.16;;;6.24;78.40
76998;BME280;65930;48.874;10.734;2023-01-04T10:23:25;96904.94;;;6.32;78.75
76998;BME280;65930;48.874;10.734;2023-01-04T10:26:09;96897.03;;;6.30;79.10
76998;BME280;65930;48.874;10.734;2023-01-04T10:28:54;96893.50;;;6.30;78.86
76998;BME280;65930;48.874;10.734;2023-01-04T10:31:35;96895.78;;;6.28;79.24
76998;BME280;65930;48.874;10.734;2023-01-04T10:34:20;96904.13;;;6.31;78.94
76998;BME280;65930;48.874;10.734;2023-01-04T10:36:55;96891.44;;;6.27;78.83
76998;BME280;65930;48.874;10.734;2023-01-04T10:39:28;96898.81;;;6.23;79.35
76998;BME280;65930;48.874;10.734;2023-01-04T10:42:10;96884.69;;;6.24;79.44
76998;BME280;65930;48.874;10.734;2023-01-04T10:44:50;96880.91;;;6.29;79.81
76998;BME280;65930;48.874;10.734;2023-01-04T10:47:29;96874.84;;;6.23;79.12
76998;BME280;65930;48.874;10.734;2023-01-04T10:50:08;96867.94;;;6.29;79.54
76998;BME280;65930;48.874;10.734;2023-01-04T10:52:45;96857.06;;;6.20;80.07
76998;BME280;65930;48.874;10.734;2023-01-04T10:55:21;96852.03;;;6.23;79.73
76998;BME280;65930;48.874;10.734;2023-01-04T10:58:01;96859.69;;;6.29;79.19
76998;BME280;65930;48.874;10.734;2023-01-04T11:00:37;96852.91;;;6.27;78.99
76998;BME280;65930;48.874;10.734;2023-01-04T11:03:16;96850.09;;;6.39;79.60
76998;BME280;65930;48.874;10.734;2023-01-04T11:05:52;96841.59;;;6.44;79.33
76998;BME280;65930;48.874;10.734;2023-01-04T11:08:27;96835.88;;;6.37;79.27
76998;BME280;65930;48.874;10.734;2023-01-04T11:11:04;96842.47;;;6.48;78.65
76998;BME280;65930;48.874;10.734;2023-01-04T11:13:37;96839.19;;;6.42;78.92
76998;BME280;65930;48.874;10.734;2023-01-04T11:16:06;96823.22;;;6.48;78.71
76998;BME280;65930;48.874;10.734;2023-01-04T11:18:37;96832.09;;;6.57;78.59
76998;BME280;65930;48.874;10.734;2023-01-04T11:21:10;96833.84;;;6.49;78.86
76998;BME280;65930;48.874;10.734;2023-01-04T11:23:40;96822.94;;;6.53;78.15
76998;BME280;65930;48.874;10.734;2023-01-04T11:26:14;96815.31;;;6.62;77.83
76998;BME280;65930;48.874;10.734;2023-01-04T11:28:50;96815.81;;;6.68;78.15
76998;BME280;65930;48.874;10.734;2023-01-04T11:31:25;96818.56;;;6.68;78.22
76998;BME280;65930;48.874;10.734;2023-01-04T11:33:58;96821.97;;;6.61;77.53
76998;BME280;65930;48.874;10.734;2023-01-04T11:36:36;96809.06;;;6.65;77.45
76998;BME280;65930;48.874;10.734;2023-01-04T11:39:06;96813.16;;;6.71;77.56
76998;BME280;65930;48.874;10.734;2023-01-04T11:41:34;96814.25;;;6.67;76.96
76998;BME280;65930;48.874;10.734;2023-01-04T11:44:05;96825.75;;;6.72;77.34
76998;BME280;65930;48.874;10.734;2023-01-04T11:46:34;96806.78;;;6.67;76.72
76998;BME280;65930;48.874;10.734;2023-01-04T11:49:02;96810.75;;;6.70;77.53
76998;BME280;65930;48.874;10.734;2023-01-04T11:51:36;96812.09;;;6.76;77.37
76998;BME280;65930;48.874;10.734;2023-01-04T11:54:18;96814.03;;;6.75;77.10
76998;BME280;65930;48.874;10.734;2023-01-04T11:56:59;96809.97;;;6.69;77.23
76998;BME280;65930;48.874;10.734;2023-01-04T11:59:37;96804.72;;;6.80;76.86
76998;BME280;65930;48.874;10.734;2023-01-04T12:02:21;96798.41;;;6.79;76.87
76998;BME280;65930;48.874;10.734;2023-01-04T12:05:18;96787.38;;;6.79;76.69
76998;BME280;65930;48.874;10.734;2023-01-04T12:07:55;96797.25;;;6.80;76.67
76998;BME280;65930;48.874;10.734;2023-01-04T12:10:25;96784.00;;;6.86;76.03
76998;BME280;65930;48.874;10.734;2023-01-04T12:12:56;96782.94;;;6.90;76.15
76998;BME280;65930;48.874;10.734;2023-01-04T12:15:35;96779.00;;;6.91;76.30
76998;BME280;65930;48.874;10.734;2023-01-04T12:18:16;96773.66;;;6.98;75.51
76998;BME280;65930;48.874;10.734;2023-01-04T12:20:47;96768.31;;;7.05;75.82
76998;BME280;65930;48.874;10.734;2023-01-04T12:23:15;96763.03;;;7.16;74.89
76998;BME280;65930;48.874;10.734;2023-01-04T12:25:48;96767.53;;;7.24;75.13
76998;BME280;65930;48.874;10.734;2023-01-04T12:28:31;96755.56;;;7.17;74.94
76998;BME280;65930;48.874;10.734;2023-01-04T12:31:27;96755.13;;;7.15;74.80
76998;BME280;65930;48.874;10.734;2023-01-04T12:33:57;96751.94;;;7.13;74.43
76998;BME280;65930;48.874;10.734;2023-01-04T12:36:54;96751.50;;;7.11;74.42
76998;BME280;65930;48.874;10.734;2023-01-04T12:39:39;96748.63;;;7.23;74.83
76998;BME280;65930;48.874;10.734;2023-01-04T12:42:12;96738.28;;;7.20;74.63
76998;BME280;65930;48.874;10.734;2023-01-04T12:45:02;96753.75;;;7.24;74.45
76998;BME280;65930;48.874;10.734;2023-01-04T12:47:40;96742.41;;;7.10;74.82
76998;BME280;65930;48.874;10.734;2023-01-04T12:50:26;96754.41;;;7.18;74.24
76998;BME280;65930;48.874;10.734;2023-01-04T12:53:00;96738.59;;;7.15;74.45
76998;BME280;65930;48.874;10.734;2023-01-04T12:55:52;96735.13;;;7.18;74.86
76998;BME280;65930;48.874;10.734;2023-01-04T13:02:13;96717.28;;;7.12;75.25
76998;BME280;65930;48.874;10.734;2023-01-04T13:04:43;96725.31;;;7.20;75.02
76998;BME280;65930;48.874;10.734;2023-01-04T13:07:17;96710.31;;;7.18;74.86
76998;BME280;65930;48.874;10.734;2023-01-04T13:09:53;96721.06;;;7.23;74.90
76998;BME280;65930;48.874;10.734;2023-01-04T13:12:45;96708.66;;;7.13;75.37
76998;BME280;65930;48.874;10.734;2023-01-04T13:15:23;96705.97;;;7.17;74.99
76998;BME280;65930;48.874;10.734;2023-01-04T13:17:59;96706.84;;;7.21;75.27
76998;BME280;65930;48.874;10.734;2023-01-04T13:20:29;96708.44;;;7.22;75.72
76998;BME280;65930;48.874;10.734;2023-01-04T13:22:57;96702.63;;;7.27;75.16
76998;BME280;65930;48.874;10.734;2023-01-04T13:25:26;96701.09;;;7.29;75.01
76998;BME280;65930;48.874;10.734;2023-01-04T13:27:58;96694.00;;;7.28;75.55
76998;BME280;65930;48.874;10.734;2023-01-04T13:30:33;96687.72;;;7.28;75.88
76998;BME280;65930;48.874;10.734;2023-01-04T13:33:13;96689.38;;;7.32;74.98
76998;BME280;65930;48.874;10.734;2023-01-04T13:36:03;96680.78;;;7.37;75.33
76998;BME280;65930;48.874;10.734;2023-01-04T13:38:43;96683.25;;;7.42;75.39
76998;BME280;65930;48.874;10.734;2023-01-04T13:41:25;96675.25;;;7.37;75.47
76998;BME280;65930;48.874;10.734;2023-01-04T13:44:18;96680.88;;;7.41;75.09
76998;BME280;65930;48.874;10.734;2023-01-04T13:47:14;96663.94;;;7.42;74.80